Time;durP1;ratioP1;P1;durP2;ratioP2;P2;SDS_P1;SDS_P2;PMS_P1;PMS_P2;Temp;Humidity;BMP_temperature;BMP_pressure;BME280_temperature;BME280_humidity;BME280_pressure;Samples;Min_cycle;Max_cycle;Signal;HPM_P1;HPM_P2
2021/05/22 10:36:47;;;;;;;;;2.00;2.00;;;;;25.73;34.36;100111.28;5104990;27;46003;-50
2021/05/22 10:39:31;;;;;;;;;2.50;2.00;;;;;25.92;34.59;100114.84;5087117;27;45786;-53
2021/05/22 10:41:56;;;;;;;;;2.00;1.75;;;;;26.07;33.88;100107.28;5087023;27;46205;-65
2021/05/22 10:48:18;;;;;;;;;1.50;0.50;;;;;25.08;29.05;100104.53;5092393;27;45766;-80
2021/05/22 10:50:47;;;;;;;;;0.00;0.00;;;;;23.36;30.52;100119.25;5067278;28;45647;-80
2021/05/22 10:53:19;;;;;;;;;0.25;0.00;;;;;21.88;31.84;100123.47;5067555;28;45899;-80
2021/05/22 10:55:45;;;;;;;;;0.75;0.75;;;;;20.74;33.18;100125.19;5064074;28;45691;-80
2021/05/22 10:58:11;;;;;;;;;1.00;0.25;;;;;20.00;34.48;100124.34;5068114;28;46037;-79
2021/05/22 11:00:36;;;;;;;;;0.25;0.00;;;;;19.27;35.25;100114.31;5068261;27;45620;-79
2021/05/22 11:03:01;;;;;;;;;1.00;1.00;;;;;18.75;36.51;100122.09;5067506;28;45570;-77
2021/05/22 11:05:32;;;;;;;;;1.25;1.25;;;;;18.31;36.99;100123.56;5068286;27;45864;-79
2021/05/22 11:08:03;;;;;;;;;0.00;0.00;;;;;17.94;37.50;100132.09;5064943;28;45831;-78
2021/05/22 11:10:45;;;;;;;;;0.25;0.00;;;;;17.44;38.50;100145.50;5061078;28;45744;-80
2021/05/22 11:13:31;;;;;;;;;1.25;0.50;;;;;17.13;39.30;100158.53;5063308;28;46047;-79
2021/05/22 11:15:57;;;;;;;;;1.00;1.00;;;;;16.76;47.05;100157.09;5051524;28;47754;-78
2021/05/22 11:18:24;;;;;;;;;0.75;0.75;;;;;16.36;48.10;100138.38;5068146;28;46126;-80
2021/05/22 11:21:08;;;;;;;;;0.50;0.50;;;;;16.24;46.02;100142.28;5061826;28;46115;-81
2021/05/22 11:24:09;;;;;;;;;2.00;1.00;;;;;16.11;45.67;100131.28;5067805;27;45558;-79
2021/05/22 11:26:52;;;;;;;;;0.00;0.00;;;;;16.05;46.89;100123.97;4984932;28;45955;-80
2021/05/22 11:29:17;;;;;;;;;0.75;0.00;;;;;16.19;44.93;100118.13;5003834;28;46225;-80
2021/05/22 11:31:43;;;;;;;;;0.00;0.00;;;;;16.38;43.87;100117.91;5005414;28;46014;-80
2021/05/22 11:34:37;;;;;;;;;1.50;1.00;;;;;16.41;45.81;100141.38;5004353;28;45822;-79
2021/05/22 11:37:09;;;;;;;;;2.00;1.25;;;;;16.14;57.65;100150.31;4926822;28;45593;-81
2021/05/22 11:39:44;;;;;;;;;1.00;0.00;;;;;15.52;58.22;100157.44;4927128;28;46501;-80
2021/05/22 11:42:33;;;;;;;;;1.00;0.00;;;;;15.26;57.01;100145.97;4934762;28;46104;-80
2021/05/22 11:45:00;;;;;;;;;0.00;0.00;;;;;15.16;59.74;100149.66;4922428;28;45654;-79
2021/05/22 11:47:30;;;;;;;;;0.00;0.00;;;;;15.11;58.56;100150.91;4925779;28;46054;-79
2021/05/22 11:49:56;;;;;;;;;0.00;0.00;;;;;15.06;58.89;100139.16;4926348;28;46024;-81
2021/05/22 11:52:34;;;;;;;;;0.00;0.00;;;;;15.15;58.35;100138.25;4942611;28;45566;-79
2021/05/22 11:55:00;;;;;;;;;0.00;0.00;;;;;15.20;58.64;100136.00;4926212;28;45827;-78
2021/05/22 11:57:26;;;;;;;;;0.00;0.00;;;;;15.28;57.50;100128.13;4919917;28;45811;-81
2021/05/22 11:59:55;;;;;;;;;0.00;0.00;;;;;15.37;49.17;100126.44;4925782;28;45809;-79
2021/05/22 12:02:39;;;;;;;;;1.00;0.00;;;;;15.46;48.81;100112.31;4988065;28;45759;-80
2021/05/22 12:05:09;;;;;;;;;1.00;0.00;;;;;15.68;47.25;100122.41;4990569;28;45881;-82
2021/05/22 12:07:53;;;;;;;;;0.00;0.00;;;;;15.87;46.79;100119.56;4989885;28;45903;-80
2021/05/22 12:10:19;;;;;;;;;0.25;0.25;;;;;16.04;45.89;100139.00;4990815;28;46074;-80
2021/05/22 12:12:45;;;;;;;;;0.00;0.00;;;;;16.12;45.18;100122.38;5002369;28;45639;-80
2021/05/22 12:15:23;;;;;;;;;0.25;0.00;;;;;16.16;44.68;100129.84;5053856;28;45778;-80
2021/05/22 12:17:51;;;;;;;;;0.25;0.25;;;;;16.15;44.23;100130.81;5053788;28;46918;-80
2021/05/22 12:20:16;;;;;;;;;0.25;0.00;;;;;16.13;44.29;100161.88;5049582;28;45707;-79
2021/05/22 12:22:42;;;;;;;;;0.00;0.00;;;;;16.04;45.08;100130.25;5049347;28;45649;-79
2021/05/22 12:25:07;;;;;;;;;0.00;0.00;;;;;15.84;45.50;100138.38;5052753;28;45773;-80
2021/05/22 12:27:36;;;;;;;;;0.00;0.00;;;;;15.60;45.80;100132.91;5035739;28;46677;-79
2021/05/22 12:30:02;;;;;;;;;0.50;0.00;;;;;15.48;47.69;100160.53;5036322;28;45757;-80
2021/05/22 12:32:28;;;;;;;;;1.00;0.00;;;;;15.32;46.58;100115.50;5049583;28;45516;-79
2021/05/22 12:35:01;;;;;;;;;1.00;1.00;;;;;15.30;47.35;100120.91;5054312;28;45667;-79
2021/05/22 12:37:27;;;;;;;;;1.00;1.00;;;;;15.35;47.16;100115.19;5052552;28;46699;-81
2021/05/22 12:39:57;;;;;;;;;0.25;0.00;;;;;15.46;47.18;100107.03;5051798;28;45709;-80
2021/05/22 12:42:24;;;;;;;;;0.00;0.00;;;;;15.59;47.02;100106.69;5051695;28;45784;-81
2021/05/22 12:44:52;;;;;;;;;2.00;0.00;;;;;15.64;46.79;100097.31;5052938;28;46101;-81
2021/05/22 12:47:18;;;;;;;;;0.00;0.00;;;;;15.73;46.89;100120.16;5068388;27;46478;-82
2021/05/22 12:50:02;;;;;;;;;1.00;0.00;;;;;15.81;47.46;100116.75;5056543;28;45986;-82
2021/05/22 12:52:28;;;;;;;;;1.00;0.00;;;;;15.84;47.45;100124.34;5035067;28;45873;-82
2021/05/22 12:54:53;;;;;;;;;0.75;0.00;;;;;15.80;47.23;100123.84;5048583;28;46118;-84
2021/05/22 12:57:39;;;;;;;;;0.00;0.00;;;;;15.83;47.81;100168.44;5052945;28;46192;-83
2021/05/22 13:00:07;;;;;;;;;1.00;0.00;;;;;15.74;51.15;100158.78;5047260;28;46440;-86
2021/05/22 13:02:35;;;;;;;;;0.00;0.00;;;;;15.40;52.22;100141.94;5047506;28;46138;-83
2021/05/22 13:05:07;;;;;;;;;0.75;0.00;;;;;15.24;52.17;100155.00;5052397;28;46157;-85
2021/05/22 13:07:46;;;;;;;;;1.00;1.00;;;;;15.12;52.30;100143.81;5050805;28;46494;-84
2021/05/22 13:10:12;;;;;;;;;1.50;0.00;;;;;14.98;52.06;100141.69;5033033;28;47631;-84
2021/05/22 13:12:57;;;;;;;;;1.50;0.25;;;;;15.03;52.56;100155.28;5052096;28;45946;-84
2021/05/22 13:15:23;;;;;;;;;0.00;0.00;;;;;15.04;53.08;100172.78;5047900;28;45758;-84
2021/05/22 13:17:56;;;;;;;;;0.25;0.00;;;;;15.15;52.95;100175.19;5048828;28;46645;-85
2021/05/22 13:20:22;;;;;;;;;0.00;0.00;;;;;15.20;54.41;100174.75;5055697;27;46102;-84
2021/05/22 13:22:47;;;;;;;;;1.00;0.00;;;;;15.26;53.10;100188.19;5052496;28;45728;-84
2021/05/22 13:25:17;;;;;;;;;0.00;0.00;;;;;15.24;53.02;100169.03;5053087;28;46202;-84
2021/05/22 13:28:01;;;;;;;;;0.00;0.00;;;;;15.29;52.80;100182.59;5052928;28;45865;-82
2021/05/22 13:30:32;;;;;;;;;0.00;0.00;;;;;15.28;52.45;100175.66;5068059;28;47396;-83
2021/05/22 13:32:58;;;;;;;;;0.00;0.00;;;;;15.30;51.96;100163.16;5052453;28;45733;-83
2021/05/22 13:35:28;;;;;;;;;1.00;0.00;;;;;15.37;51.53;100163.38;5047376;28;45851;-79
2021/05/22 13:37:54;;;;;;;;;0.00;0.00;;;;;15.59;52.17;100172.69;5048644;28;48598;-80
2021/05/22 13:40:19;;;;;;;;;0.25;0.25;;;;;15.75;51.45;100183.41;5042398;28;47175;-80
2021/05/22 13:42:45;;;;;;;;;0.25;0.00;;;;;15.83;50.24;100179.00;5049265;28;45805;-80
2021/05/22 13:45:11;;;;;;;;;0.00;0.00;;;;;15.91;50.19;100172.97;5042823;28;45752;-79
2021/05/22 13:47:37;;;;;;;;;0.00;0.00;;;;;16.04;50.32;100167.25;5055146;27;47658;-80
2021/05/22 13:50:11;;;;;;;;;0.50;0.00;;;;;16.18;48.57;100166.69;5046271;28;46385;-78
2021/05/22 13:52:37;;;;;;;;;0.00;0.00;;;;;16.29;48.46;100175.19;5049295;28;45772;-79
2021/05/22 13:55:03;;;;;;;;;0.00;0.00;;;;;16.26;48.32;100156.16;5050328;28;45650;-79
2021/05/22 13:57:29;;;;;;;;;0.00;0.00;;;;;16.25;48.34;100163.25;5062379;27;47298;-79
2021/05/22 13:59:55;;;;;;;;;0.00;0.00;;;;;16.26;48.16;100170.22;5049086;28;54055;-80
2021/05/22 14:02:21;;;;;;;;;0.50;0.00;;;;;16.33;47.96;100195.03;5048252;28;46115;-79
2021/05/22 14:04:46;;;;;;;;;0.00;0.00;;;;;16.33;47.62;100181.81;5043719;28;45773;-80
2021/05/22 14:07:11;;;;;;;;;0.00;0.00;;;;;16.47;47.62;100185.69;5046206;28;55387;-80
2021/05/22 14:09:37;;;;;;;;;1.00;0.00;;;;;16.68;47.88;100180.88;5051879;28;45816;-77
2021/05/22 14:12:03;;;;;;;;;1.25;0.00;;;;;16.79;47.65;100193.81;5052158;28;45531;-79
2021/05/22 14:14:28;;;;;;;;;0.00;0.00;;;;;16.89;47.53;100188.41;5051826;28;45702;-78
2021/05/22 14:16:54;;;;;;;;;0.00;0.00;;;;;17.04;47.76;100192.09;5050588;28;45683;-78
2021/05/22 14:19:19;;;;;;;;;0.00;0.00;;;;;17.18;48.17;100183.53;5049944;28;47402;-80
2021/05/22 14:21:44;;;;;;;;;0.00;0.00;;;;;17.32;48.61;100182.09;5051240;28;46375;-78
2021/05/22 14:24:10;;;;;;;;;1.00;0.00;;;;;17.36;48.61;100180.75;5046783;28;45775;-80
2021/05/22 14:26:35;;;;;;;;;0.00;0.00;;;;;17.31;47.56;100184.88;5048123;28;46017;-80
2021/05/22 14:29:01;;;;;;;;;1.00;0.00;;;;;17.18;47.94;100199.41;5051788;28;45819;-80
2021/05/22 14:31:26;;;;;;;;;0.25;0.00;;;;;17.05;48.13;100187.66;5051019;28;45622;-80
2021/05/22 14:33:52;;;;;;;;;1.00;1.00;;;;;16.85;48.16;100194.16;5051508;28;46201;-80
2021/05/22 14:36:17;;;;;;;;;0.25;0.00;;;;;16.71;48.03;100201.72;5050189;28;47241;-80
2021/05/22 14:38:43;;;;;;;;;0.00;0.00;;;;;16.58;48.94;100203.09;5051504;28;45851;-78
2021/05/22 14:41:08;;;;;;;;;1.75;1.00;;;;;16.50;50.06;100201.25;5038221;28;45777;-80
2021/05/22 14:43:34;;;;;;;;;0.00;0.00;;;;;16.46;49.86;100184.06;5049161;28;45918;-81
2021/05/22 14:46:01;;;;;;;;;0.50;0.25;;;;;16.50;50.49;100189.84;5058802;28;46357;-80
2021/05/22 14:48:27;;;;;;;;;1.25;1.00;;;;;16.56;50.86;100205.09;5049993;28;47256;-78
2021/05/22 14:50:52;;;;;;;;;0.50;0.50;;;;;16.54;50.76;100180.59;5061581;28;45923;-80
2021/05/22 14:53:18;;;;;;;;;1.00;0.00;;;;;16.56;49.92;100199.81;5047404;28;46310;-81
2021/05/22 14:55:43;;;;;;;;;1.75;0.00;;;;;16.50;49.61;100205.72;5044014;28;46389;-81
2021/05/22 14:58:09;;;;;;;;;0.00;0.00;;;;;16.47;49.82;100201.56;5050314;28;45933;-80
2021/05/22 15:00:35;;;;;;;;;0.00;0.00;;;;;16.43;49.20;100208.16;5050940;28;46070;-80
2021/05/22 15:03:01;;;;;;;;;1.00;0.75;;;;;16.31;49.33;100202.28;5045260;28;46091;-79
2021/05/22 15:05:27;;;;;;;;;1.00;0.00;;;;;16.22;49.42;100200.59;5050287;28;46722;-80
2021/05/22 15:07:52;;;;;;;;;1.00;0.00;;;;;16.11;49.53;100205.28;5051134;28;45796;-79
2021/05/22 15:10:18;;;;;;;;;0.75;0.00;;;;;16.07;50.15;100225.94;5047273;28;46293;-79
2021/05/22 15:12:43;;;;;;;;;0.00;0.00;;;;;15.92;50.34;100214.25;5050575;28;45770;-80
2021/05/22 15:15:09;;;;;;;;;0.25;0.25;;;;;15.89;50.69;100236.50;5050062;28;46226;-80
2021/05/22 15:17:34;;;;;;;;;1.00;0.00;;;;;15.80;50.74;100234.78;5066381;28;46294;-80
2021/05/22 15:20:00;;;;;;;;;0.00;0.00;;;;;15.72;50.57;100255.81;5051327;28;45724;-80
2021/05/22 15:22:26;;;;;;;;;0.00;0.00;;;;;15.56;50.09;100250.38;5049509;28;45796;-80
2021/05/22 15:24:51;;;;;;;;;0.00;0.00;;;;;15.40;48.74;100272.13;5050898;28;45693;-80
2021/05/22 15:27:16;;;;;;;;;0.00;0.00;;;;;15.16;49.01;100287.69;5048367;28;45734;-79
2021/05/22 15:29:42;;;;;;;;;0.00;0.00;;;;;14.75;68.37;100290.75;5050670;28;45611;-78
2021/05/22 15:32:08;;;;;;;;;0.00;0.00;;;;;14.01;69.58;100301.09;5049901;28;45875;-79
2021/05/22 15:34:33;;;;;;;;;0.00;0.00;;;;;13.52;69.96;100305.47;5052438;28;47972;-81
2021/05/22 15:36:58;;;;;;;;;0.00;0.00;;;;;13.23;71.79;100302.75;5054576;28;45906;-81
2021/05/22 15:39:24;;;;;;;;;0.00;0.00;;;;;13.06;72.97;100292.03;5047621;28;46004;-79
2021/05/22 15:41:50;;;;;;;;;0.00;0.00;;;;;12.97;74.20;100275.22;5039626;28;45808;-80
2021/05/22 15:44:16;;;;;;;;;0.00;0.00;;;;;12.98;74.62;100258.47;5041830;28;46293;-81
2021/05/22 15:46:43;;;;;;;;;0.00;0.00;;;;;13.00;75.44;100238.16;5048650;28;45811;-80
2021/05/22 15:59:53;;;;;;;;;1.75;1.00;;;;;14.08;76.11;100236.38;5056615;28;45836;-79
2021/05/22 16:02:36;;;;;;;;;0.00;0.00;;;;;14.31;76.53;100229.78;5048788;28;45652;-79
2021/05/22 16:07:31;;;;;;;;;0.25;0.00;;;;;15.25;76.88;100220.84;5053942;28;45691;-79
2021/05/22 16:09:56;;;;;;;;;0.00;0.00;;;;;16.06;77.21;100226.06;5048865;28;45816;-82
2021/05/22 16:12:22;;;;;;;;;0.00;0.00;;;;;16.73;75.01;100225.38;5058426;28;46157;-78
2021/05/22 16:14:47;;;;;;;;;0.00;0.00;;;;;17.94;73.83;100225.72;5054751;28;45715;-78
2021/05/22 16:17:13;;;;;;;;;0.25;0.00;;;;;19.07;72.41;100205.22;5039857;28;46166;-80
2021/05/22 16:19:38;;;;;;;;;1.00;0.00;;;;;20.22;70.77;100204.28;5034979;28;46119;-80
2021/05/22 16:22:04;;;;;;;;;0.75;0.00;;;;;21.17;70.01;100205.22;5043795;28;49158;-80
2021/05/22 16:24:29;;;;;;;;;0.75;0.00;;;;;21.94;68.41;100202.72;5053530;28;50364;-80
2021/05/22 16:26:54;;;;;;;;;0.25;0.00;;;;;22.84;66.65;100210.78;5051306;28;45764;-80
2021/05/22 16:29:20;;;;;;;;;0.00;0.00;;;;;23.95;66.52;100196.91;5052123;28;45961;-80
2021/05/22 16:31:47;;;;;;;;;0.00;0.00;;;;;25.34;61.37;100186.66;5053838;28;45825;-80
2021/05/22 16:34:14;;;;;;;;;0.00;0.00;;;;;26.45;43.78;100193.06;5052890;28;45659;-81
2021/05/22 16:36:39;;;;;;;;;0.00;0.00;;;;;27.28;40.36;100201.41;5050809;28;46233;-80
2021/05/22 16:39:07;;;;;;;;;0.00;0.00;;;;;27.87;38.42;100195.16;5052433;28;46043;-81
2021/05/22 16:41:32;;;;;;;;;0.00;0.00;;;;;28.11;35.53;100192.50;5053795;28;45577;-80
2021/05/22 16:43:58;;;;;;;;;1.00;0.00;;;;;27.98;35.17;100198.94;5051601;28;46872;-80
2021/05/22 16:46:23;;;;;;;;;0.50;0.00;;;;;27.46;33.61;100193.28;5051184;28;48319;-80
2021/05/22 16:48:50;;;;;;;;;0.00;0.00;;;;;27.06;32.52;100219.91;5053011;28;46218;-80
2021/05/22 16:51:16;;;;;;;;;1.00;0.00;;;;;26.50;33.01;100203.97;5053321;28;45717;-81
2021/05/22 16:53:41;;;;;;;;;0.00;0.00;;;;;26.33;32.50;100220.88;5041280;28;45749;-80
2021/05/22 16:56:07;;;;;;;;;0.25;0.00;;;;;25.84;32.53;100226.00;5051022;28;45724;-80
2021/05/22 16:58:32;;;;;;;;;0.00;0.00;;;;;25.44;31.68;100217.34;5053258;28;45630;-80
2021/05/22 17:00:58;;;;;;;;;0.00;0.00;;;;;25.16;31.50;100230.28;5052005;28;45925;-80
2021/05/22 17:03:23;;;;;;;;;0.00;0.00;;;;;24.83;31.77;100222.34;5051937;28;48246;-78
2021/05/22 17:05:49;;;;;;;;;0.00;0.00;;;;;24.60;32.12;100233.53;5052342;28;46048;-81
2021/05/22 17:08:14;;;;;;;;;0.00;0.00;;;;;24.36;32.42;100223.47;5054140;28;46013;-80
2021/05/22 17:10:40;;;;;;;;;0.00;0.00;;;;;23.82;31.99;100237.03;5046674;28;45971;-80
2021/05/22 17:13:05;;;;;;;;;0.00;0.00;;;;;23.12;32.88;100237.41;5051292;28;46172;-80
2021/05/22 17:15:31;;;;;;;;;0.00;0.00;;;;;22.60;33.35;100252.94;5051830;28;46518;-81
2021/05/22 17:17:57;;;;;;;;;1.00;0.00;;;;;22.10;34.13;100256.66;5050601;28;45735;-81
2021/05/22 17:20:22;;;;;;;;;0.00;0.00;;;;;21.70;35.01;100241.28;5063681;27;45806;-81
2021/05/22 17:22:47;;;;;;;;;0.00;0.00;;;;;21.45;34.99;100235.47;5052656;28;48778;-80
2021/05/22 17:25:14;;;;;;;;;0.00;0.00;;;;;21.04;35.29;100260.97;5051462;28;50108;-80
2021/05/22 17:27:43;;;;;;;;;1.00;0.00;;;;;20.68;36.04;100264.38;5046868;28;45528;-80
2021/05/22 17:30:10;;;;;;;;;0.00;0.00;;;;;20.42;36.62;100266.63;5052984;28;45743;-80
2021/05/22 17:32:36;;;;;;;;;0.00;0.00;;;;;20.11;36.38;100256.91;5051538;28;46650;-81
2021/05/22 17:35:01;;;;;;;;;0.00;0.00;;;;;19.77;37.32;100275.09;5052991;28;46287;-80
2021/05/22 17:37:27;;;;;;;;;0.00;0.00;;;;;19.42;37.65;100272.97;5052294;28;45732;-79
2021/05/22 17:39:52;;;;;;;;;0.00;0.00;;;;;19.20;38.11;100275.41;5051553;28;47067;-79
2021/05/22 17:42:18;;;;;;;;;2.00;0.75;;;;;19.03;38.46;100278.28;5052304;28;46791;-81
2021/05/22 17:44:43;;;;;;;;;0.00;0.00;;;;;19.03;38.95;100276.47;5040574;28;46037;-80
2021/05/22 17:47:10;;;;;;;;;0.25;0.25;;;;;19.05;39.53;100266.50;5052082;28;45732;-79
2021/05/22 17:49:37;;;;;;;;;1.50;0.00;;;;;19.19;39.27;100271.09;5050912;28;45585;-81
2021/05/22 17:52:02;;;;;;;;;0.00;0.00;;;;;19.16;39.67;100271.41;5042471;28;46512;-81
2021/05/22 17:54:28;;;;;;;;;0.50;0.50;;;;;18.76;39.91;100277.69;5052315;28;46445;-79
2021/05/22 17:56:53;;;;;;;;;0.00;0.00;;;;;18.59;40.26;100281.38;5051685;28;46471;-81
2021/05/22 17:59:19;;;;;;;;;0.00;0.00;;;;;18.51;39.95;100323.00;5050839;28;45835;-81
2021/05/22 18:01:44;;;;;;;;;0.00;0.00;;;;;18.35;40.20;100324.63;5067035;28;48066;-81
2021/05/22 18:04:10;;;;;;;;;0.00;0.00;;;;;18.19;40.99;100314.03;5051767;28;45789;-81
2021/05/22 18:06:35;;;;;;;;;0.00;0.00;;;;;18.03;41.76;100312.19;5050312;28;45954;-81
2021/05/22 18:09:01;;;;;;;;;0.00;0.00;;;;;18.03;42.35;100320.16;5052237;28;45653;-81
2021/05/22 18:11:27;;;;;;;;;0.00;0.00;;;;;17.91;42.54;100318.84;5050457;28;46804;-80
2021/05/22 18:13:53;;;;;;;;;0.00;0.00;;;;;17.86;42.95;100317.66;5051174;28;45990;-81
2021/05/22 18:16:18;;;;;;;;;0.00;0.00;;;;;17.82;42.59;100318.97;5065632;28;46481;-81
2021/05/22 18:18:43;;;;;;;;;0.00;0.00;;;;;17.83;43.16;100312.66;5049514;28;49071;-81
2021/05/22 18:21:09;;;;;;;;;0.00;0.00;;;;;17.97;42.76;100322.66;5051792;28;46236;-80
2021/05/22 18:23:36;;;;;;;;;0.00;0.00;;;;;18.01;42.47;100303.59;5050245;28;48257;-81
2021/05/22 18:26:05;;;;;;;;;0.00;0.00;;;;;17.96;42.46;100319.16;5047704;28;45775;-80
2021/05/22 18:28:30;;;;;;;;;0.00;0.00;;;;;17.87;42.33;100346.63;5051088;28;45626;-81
2021/05/22 18:30:56;;;;;;;;;1.00;0.00;;;;;17.58;42.05;100327.66;5051305;28;47440;-82
2021/05/22 18:33:21;;;;;;;;;0.00;0.00;;;;;17.34;42.51;100333.69;5053093;28;46025;-80
2021/05/22 18:35:47;;;;;;;;;0.00;0.00;;;;;17.02;42.18;100333.53;5045387;28;47387;-81
2021/05/22 18:38:12;;;;;;;;;0.00;0.00;;;;;16.74;43.02;100330.19;5051589;28;45740;-81
2021/05/22 18:40:38;;;;;;;;;0.75;0.00;;;;;16.54;42.55;100312.84;5052211;28;46811;-81
2021/05/22 18:43:03;;;;;;;;;0.00;0.00;;;;;16.37;43.17;100325.94;5051347;28;46007;-81
2021/05/22 18:45:29;;;;;;;;;0.00;0.00;;;;;16.23;43.35;100315.94;5051807;28;45849;-81
2021/05/22 18:47:54;;;;;;;;;0.50;0.00;;;;;16.15;43.26;100313.19;5048618;28;46563;-80
2021/05/22 18:50:26;;;;;;;;;1.00;0.00;;;;;15.95;42.96;100309.88;5041274;28;46232;-80
2021/05/22 18:52:51;;;;;;;;;0.00;0.00;;;;;15.87;43.72;100304.50;5066375;28;47032;-79
2021/05/22 18:55:17;;;;;;;;;0.50;0.00;;;;;15.76;43.33;100307.38;5051543;28;45703;-80
2021/05/22 18:57:44;;;;;;;;;0.25;0.00;;;;;15.64;43.59;100305.09;5051158;28;46067;-80
2021/05/22 19:00:13;;;;;;;;;0.00;0.00;;;;;15.55;43.84;100300.72;5051684;28;45627;-80
2021/05/22 19:02:39;;;;;;;;;0.00;0.00;;;;;15.49;43.61;100307.41;5051560;28;46184;-81
2021/05/22 19:05:06;;;;;;;;;0.00;0.00;;;;;15.38;43.78;100294.41;5051782;28;45803;-80
2021/05/22 19:07:32;;;;;;;;;1.00;0.00;;;;;15.37;43.77;100301.50;5038091;28;45800;-80
2021/05/22 19:09:58;;;;;;;;;0.25;0.00;;;;;15.31;43.79;100303.88;5053559;28;47152;-81
2021/05/22 19:12:23;;;;;;;;;1.00;0.75;;;;;15.33;44.37;100307.22;5054335;28;45678;-78
2021/05/22 19:14:49;;;;;;;;;0.00;0.00;;;;;15.25;44.04;100309.72;5055468;28;45571;-78
2021/05/22 19:17:15;;;;;;;;;0.00;0.00;;;;;15.26;44.11;100317.50;5052513;28;45637;-81
2021/05/22 19:19:41;;;;;;;;;0.00;0.00;;;;;15.23;44.17;100323.06;5053029;28;45727;-81
2021/05/22 19:22:09;;;;;;;;;1.00;0.00;;;;;15.10;44.56;100320.78;5055881;28;45825;-82
2021/05/22 19:24:37;;;;;;;;;1.00;0.25;;;;;15.10;44.29;100339.25;5055716;28;45755;-81
2021/05/22 19:27:04;;;;;;;;;1.00;1.00;;;;;15.07;44.81;100347.44;5054017;28;45768;-79
2021/05/22 19:29:29;;;;;;;;;0.00;0.00;;;;;15.01;44.99;100349.81;5054763;27;47823;-82
2021/05/22 19:31:54;;;;;;;;;1.25;0.00;;;;;15.06;44.77;100372.16;5053544;28;45943;-80
2021/05/22 19:34:20;;;;;;;;;0.00;0.00;;;;;14.96;45.38;100368.72;5069815;28;46104;-81
2021/05/22 19:36:46;;;;;;;;;1.00;0.00;;;;;14.77;46.06;100365.31;5054259;28;45729;-81
2021/05/22 19:39:11;;;;;;;;;0.00;0.00;;;;;14.62;46.35;100368.38;5054722;28;46484;-80
2021/05/22 19:41:40;;;;;;;;;0.75;0.75;;;;;14.53;46.48;100378.91;5054160;28;45593;-82
2021/05/22 19:44:07;;;;;;;;;0.00;0.00;;;;;14.34;47.29;100379.75;5045879;28;45957;-80
2021/05/22 19:46:33;;;;;;;;;0.00;0.00;;;;;14.25;47.70;100370.84;5053947;27;46007;-80
2021/05/22 19:48:58;;;;;;;;;0.00;0.00;;;;;14.19;48.11;100370.59;5054616;28;47020;-80
2021/05/22 19:51:24;;;;;;;;;0.00;0.00;;;;;14.22;48.50;100389.59;5054128;28;46063;-81
2021/05/22 19:53:52;;;;;;;;;0.00;0.00;;;;;14.12;48.58;100380.84;5054426;28;45786;-80
2021/05/22 19:56:18;;;;;;;;;0.25;0.25;;;;;14.12;49.37;100407.19;5053401;28;45535;-80
2021/05/22 19:58:44;;;;;;;;;1.00;0.00;;;;;14.05;49.81;100394.69;5037956;28;48565;-80
2021/05/22 20:01:10;;;;;;;;;0.00;0.00;;;;;13.98;49.50;100397.03;5069473;28;47166;-80
2021/05/22 20:03:36;;;;;;;;;0.00;0.00;;;;;13.96;50.03;100411.31;5054973;28;45708;-80
2021/05/22 20:06:02;;;;;;;;;0.00;0.00;;;;;13.86;50.34;100416.56;5052871;28;46672;-79
2021/05/22 20:08:29;;;;;;;;;0.00;0.00;;;;;13.86;50.92;100419.19;5054329;28;45669;-79
2021/05/22 20:10:56;;;;;;;;;0.00;0.00;;;;;13.88;50.78;100428.63;5054007;28;46194;-80
2021/05/22 20:13:22;;;;;;;;;1.00;0.50;;;;;13.86;50.99;100435.00;5048903;28;45551;-80
2021/05/22 20:15:50;;;;;;;;;0.50;0.00;;;;;13.76;51.76;100426.25;5053134;28;45607;-80
2021/05/22 20:18:16;;;;;;;;;0.00;0.00;;;;;13.75;51.30;100433.31;5068949;28;47538;-81
2021/05/22 20:20:41;;;;;;;;;1.50;1.00;;;;;13.69;51.87;100439.09;5051420;28;46427;-80
2021/05/22 20:23:06;;;;;;;;;1.75;0.00;;;;;13.74;52.06;100441.31;5069389;27;45762;-81
2021/05/22 20:25:32;;;;;;;;;0.00;0.00;;;;;13.69;52.48;100433.00;5051909;28;45781;-80
2021/05/22 20:27:57;;;;;;;;;0.00;0.00;;;;;13.68;52.32;100436.59;5047380;28;45741;-79
2021/05/22 20:30:24;;;;;;;;;0.75;0.00;;;;;13.68;52.71;100439.22;5056448;28;45889;-81
2021/05/22 20:32:51;;;;;;;;;0.00;0.00;;;;;13.74;52.52;100444.78;5056666;28;45628;-81
2021/05/22 20:35:19;;;;;;;;;0.50;0.00;;;;;13.70;52.83;100430.25;5053628;28;45741;-83
2021/05/22 20:37:45;;;;;;;;;0.00;0.00;;;;;13.75;53.08;100440.38;5053314;28;45847;-83
2021/05/22 20:40:14;;;;;;;;;0.00;0.00;;;;;13.68;53.38;100447.97;5052589;28;47223;-84
2021/05/22 20:42:40;;;;;;;;;0.75;0.00;;;;;13.66;53.42;100449.03;5048325;28;46385;-84
2021/05/22 20:45:08;;;;;;;;;0.00;0.00;;;;;13.62;53.90;100447.66;5085895;27;45785;-83
2021/05/22 20:47:34;;;;;;;;;0.00;0.00;;;;;13.54;53.90;100458.84;5046804;28;47655;-83
2021/05/22 20:49:59;;;;;;;;;1.00;0.00;;;;;13.44;54.30;100443.00;5051067;28;48059;-83
2021/05/22 20:52:25;;;;;;;;;0.00;0.00;;;;;13.43;54.47;100451.88;5045061;28;45819;-84
2021/05/22 20:54:50;;;;;;;;;1.00;1.00;;;;;13.39;54.69;100454.88;5041923;28;45638;-85
2021/05/22 20:57:16;;;;;;;;;0.00;0.00;;;;;13.38;54.85;100466.38;5047328;28;46877;-83
2021/05/22 20:59:41;;;;;;;;;1.50;0.25;;;;;13.35;54.86;100479.78;5054608;28;46311;-84
2021/05/22 21:02:10;;;;;;;;;1.00;1.00;;;;;13.21;55.02;100456.47;5055234;28;45778;-83
2021/05/22 21:04:36;;;;;;;;;1.00;1.00;;;;;13.11;55.66;100466.91;5041565;28;45669;-84
2021/05/22 21:07:02;;;;;;;;;1.00;1.00;;;;;13.11;55.93;100480.03;5051619;28;46762;-84
2021/05/22 21:09:27;;;;;;;;;1.00;1.00;;;;;13.03;56.05;100471.94;5052802;28;46101;-83
2021/05/22 21:11:54;;;;;;;;;1.25;1.00;;;;;13.04;55.92;100473.63;5053078;28;45727;-83
2021/05/22 21:14:20;;;;;;;;;1.00;1.00;;;;;12.94;56.53;100476.19;5053749;28;45673;-83
2021/05/22 21:16:45;;;;;;;;;2.00;1.50;;;;;12.98;56.51;100488.09;5051295;28;46449;-84
2021/05/22 21:19:12;;;;;;;;;0.75;0.00;;;;;12.91;56.53;100486.94;5041421;28;46142;-83
2021/05/22 21:21:38;;;;;;;;;0.00;0.00;;;;;12.94;56.89;100493.75;5054811;28;45614;-83
2021/05/22 21:24:05;;;;;;;;;1.00;0.25;;;;;12.89;57.12;100498.56;5054077;28;45593;-83
2021/05/22 21:26:30;;;;;;;;;1.25;0.25;;;;;12.75;57.39;100490.94;5049849;28;45817;-83
2021/05/22 21:28:56;;;;;;;;;0.00;0.00;;;;;12.81;57.11;100498.34;5043491;28;46072;-83
2021/05/22 21:31:22;;;;;;;;;0.00;0.00;;;;;12.77;57.40;100505.66;5053704;28;45710;-83
2021/05/22 21:33:48;;;;;;;;;1.00;1.00;;;;;12.73;57.78;100506.88;5053693;28;45696;-83
2021/05/22 21:36:14;;;;;;;;;0.25;0.25;;;;;12.68;58.09;100495.06;5053432;28;46935;-83
2021/05/22 21:38:42;;;;;;;;;0.50;0.50;;;;;12.61;57.96;100503.44;5051951;28;46181;-83
2021/05/22 21:41:08;;;;;;;;;0.75;0.75;;;;;12.60;57.86;100493.06;5044150;28;45874;-83
2021/05/22 21:43:34;;;;;;;;;0.50;0.25;;;;;12.53;58.40;100508.47;5043822;28;47199;-84
2021/05/22 21:45:59;;;;;;;;;0.00;0.00;;;;;12.41;58.46;100509.47;5052319;28;45795;-84
2021/05/22 21:48:25;;;;;;;;;3.00;0.75;;;;;12.34;58.80;100491.69;5041037;28;45783;-83
2021/05/22 21:50:51;;;;;;;;;0.50;0.50;;;;;12.38;58.91;100509.72;5052792;28;45778;-83
2021/05/22 21:53:17;;;;;;;;;1.00;1.00;;;;;12.37;59.11;100518.53;5051428;28;45754;-83
2021/05/22 21:55:42;;;;;;;;;1.00;0.00;;;;;12.28;58.78;100508.78;5051067;28;47757;-83
2021/05/22 21:58:09;;;;;;;;;1.00;0.75;;;;;12.31;59.16;100528.72;5043595;28;46006;-84
2021/05/22 22:00:46;;;;;;;;;1.00;0.75;;;;;12.21;59.32;100525.97;5046301;28;45738;-84
2021/05/22 22:03:21;;;;;;;;;0.00;0.00;;;;;12.16;59.52;100534.22;5052989;28;45759;-83
2021/05/22 22:05:53;;;;;;;;;1.00;1.00;;;;;11.97;59.54;100509.53;5051186;28;47670;-84
2021/05/22 22:08:20;;;;;;;;;1.00;1.00;;;;;11.92;59.64;100512.53;5067615;28;48065;-84
2021/05/22 22:10:47;;;;;;;;;1.00;1.00;;;;;12.04;59.96;100536.97;5052774;28;45961;-83
2021/05/22 22:13:13;;;;;;;;;1.00;1.00;;;;;12.02;60.02;100538.91;5052558;28;45716;-83
2021/05/22 22:15:39;;;;;;;;;1.00;1.00;;;;;11.98;60.12;100530.44;5052284;28;45632;-83
2021/05/22 22:18:06;;;;;;;;;0.00;0.00;;;;;11.93;60.25;100521.25;5053310;28;45932;-83